Time;durP1;ratioP1;P1;durP2;ratioP2;P2;SDS_P1;SDS_P2;PMS_P1;PMS_P2;Temp;Humidity;BMP_temperature;BMP_pressure;BME280_temperature;BME280_humidity;BME280_pressure;Samples;Min_cycle;Max_cycle;Signal;HPM_P1;HPM_P2
2023/01/02 00:01:58;;;;;;;2.55;1.27;;;;;;;8.60;98.71;101229.66;4968073;28;20054;-77
2023/01/02 00:04:27;;;;;;;2.25;1.30;;;;;;;8.60;99.23;101223.63;4944143;28;20680;-76
2023/01/02 00:06:55;;;;;;;4.80;1.95;;;;;;;8.57;98.90;101213.16;4960974;28;20513;-72
2023/01/02 00:09:25;;;;;;;3.88;1.48;;;;;;;8.53;100.00;101204.41;4957265;28;20081;-72
2023/01/02 00:11:53;;;;;;;3.00;1.58;;;;;;;8.45;100.00;101186.81;4963005;28;20062;-72
2023/01/02 00:14:22;;;;;;;4.13;1.70;;;;;;;8.33;100.00;101174.22;4965943;28;20067;-72
2023/01/02 00:16:50;;;;;;;2.95;1.50;;;;;;;8.22;100.00;101165.13;4959964;28;20047;-73
2023/01/02 00:19:20;;;;;;;4.80;2.28;;;;;;;8.12;100.00;101166.41;4970305;28;20055;-72
2023/01/02 00:21:49;;;;;;;3.88;2.05;;;;;;;8.07;100.00;101167.88;4966851;28;20524;-71
2023/01/02 00:24:18;;;;;;;3.55;2.17;;;;;;;8.01;100.00;101163.31;4975972;28;20050;-72
2023/01/02 00:26:46;;;;;;;3.47;2.28;;;;;;;7.96;100.00;101157.94;4960801;28;20043;-71
2023/01/02 00:29:15;;;;;;;4.03;2.65;;;;;;;7.93;100.00;101151.78;4964952;28;20408;-72
2023/01/02 00:31:43;;;;;;;7.82;3.63;;;;;;;7.86;100.00;101145.47;4957641;28;20062;-72
2023/01/02 00:34:12;;;;;;;8.10;4.25;;;;;;;7.82;100.00;101152.97;4962343;28;20496;-71
2023/01/02 00:36:42;;;;;;;7.00;3.97;;;;;;;7.79;100.00;101160.53;4963444;28;20058;-71
2023/01/02 00:39:11;;;;;;;11.75;5.40;;;;;;;7.75;100.00;101156.97;4944292;28;20052;-71
2023/01/02 00:41:40;;;;;;;7.25;3.95;;;;;;;7.66;100.00;101147.09;4957745;28;20058;-71
2023/01/02 00:44:08;;;;;;;9.55;4.50;;;;;;;7.66;100.00;101161.66;4959900;28;20790;-71
2023/01/02 00:46:37;;;;;;;6.20;3.55;;;;;;;7.58;100.00;101158.72;4956816;28;20051;-71
2023/01/02 00:49:06;;;;;;;5.43;3.08;;;;;;;7.51;100.00;101160.13;4950639;28;20057;-72
2023/01/02 00:51:35;;;;;;;4.78;2.70;;;;;;;7.46;100.00;101163.28;4964406;28;20059;-71
2023/01/02 00:54:05;;;;;;;7.50;2.88;;;;;;;7.40;100.00;101157.81;4951035;28;20062;-72
2023/01/02 00:56:41;;;;;;;4.57;2.65;;;;;;;7.37;100.00;101162.84;4969893;28;20527;-71
2023/01/02 00:59:10;;;;;;;4.25;2.42;;;;;;;7.35;100.00;101167.91;4966075;28;20058;-71
2023/01/02 01:01:38;;;;;;;5.22;2.72;;;;;;;7.31;100.00;101161.72;4956512;28;20051;-71
2023/01/02 01:04:07;;;;;;;3.90;2.47;;;;;;;7.27;100.00;101159.81;4950606;28;20055;-71
2023/01/02 01:06:36;;;;;;;4.15;2.83;;;;;;;7.22;100.00;101158.72;4960816;28;20050;-71
2023/01/02 01:09:06;;;;;;;7.70;3.55;;;;;;;7.19;100.00;101157.66;4963344;28;20051;-71
2023/01/02 01:11:34;;;;;;;10.60;4.45;;;;;;;7.17;100.00;101160.19;4968776;28;20512;-71
2023/01/02 01:14:03;;;;;;;8.35;3.90;;;;;;;7.15;100.00;101154.06;4970260;28;20046;-71
2023/01/02 01:16:32;;;;;;;7.32;3.90;;;;;;;7.12;100.00;101146.16;4968734;28;20055;-73
2023/01/02 01:19:00;;;;;;;8.05;4.00;;;;;;;7.11;100.00;101149.56;4971993;28;20046;-70
2023/01/02 01:21:29;;;;;;;4.50;3.22;;;;;;;7.09;100.00;101146.03;4972559;28;20047;-73
2023/01/02 01:23:58;;;;;;;5.63;3.88;;;;;;;7.06;100.00;101140.75;4970367;28;20054;-71
2023/01/02 01:26:28;;;;;;;6.82;3.58;;;;;;;7.03;100.00;101140.56;4968618;28;20065;-70
2023/01/02 01:28:57;;;;;;;6.28;3.10;;;;;;;6.97;100.00;101135.13;4967627;28;20499;-71
2023/01/02 01:31:26;;;;;;;5.97;3.28;;;;;;;6.90;100.00;101127.09;4970576;28;20062;-70
2023/01/02 01:33:54;;;;;;;5.85;3.33;;;;;;;6.84;100.00;101124.22;4967877;28;20059;-70
2023/01/02 01:36:24;;;;;;;6.90;3.63;;;;;;;6.78;100.00;101123.94;4967531;28;20065;-71
2023/01/02 01:38:53;;;;;;;8.02;3.35;;;;;;;6.74;100.00;101127.16;4965270;28;20053;-71
2023/01/02 01:41:24;;;;;;;11.20;3.83;;;;;;;6.69;100.00;101120.88;4971555;28;20417;-71
2023/01/02 01:43:55;;;;;;;9.30;3.97;;;;;;;6.63;100.00;101118.00;4966033;28;20501;-71
2023/01/02 01:46:30;;;;;;;7.25;4.65;;;;;;;6.58;100.00;101114.31;4976741;28;20046;-71
2023/01/02 01:49:04;;;;;;;7.82;4.38;;;;;;;6.53;100.00;101110.59;4969547;28;20567;-71
2023/01/02 01:51:37;;;;;;;7.20;3.97;;;;;;;6.48;100.00;101113.84;4966357;28;20055;-70
2023/01/02 01:54:10;;;;;;;9.20;4.47;;;;;;;6.43;100.00;101115.25;4969166;28;20038;-70
2023/01/02 01:56:41;;;;;;;9.48;4.57;;;;;;;6.41;100.00;101116.00;4976387;28;20496;-70
2023/01/02 01:59:13;;;;;;;9.77;5.20;;;;;;;6.38;100.00;101119.28;4972882;28;20523;-71
2023/01/02 02:01:44;;;;;;;10.07;5.40;;;;;;;6.35;100.00;101116.56;4961438;28;20806;-70
2023/01/02 02:04:13;;;;;;;12.75;6.93;;;;;;;6.32;100.00;101118.09;4960359;28;20118;-71
2023/01/02 02:06:42;;;;;;;14.25;5.57;;;;;;;6.30;100.00;101123.16;4964437;28;20113;-71
2023/01/02 02:09:16;;;;;;;10.98;4.40;;;;;;;6.28;100.00;101124.78;4970276;28;20047;-71
2023/01/02 02:11:45;;;;;;;7.25;3.40;;;;;;;6.23;100.00;101128.75;4976243;28;20057;-72
2023/01/02 02:14:16;;;;;;;8.07;3.90;;;;;;;6.17;100.00;101121.63;4966017;28;20054;-72
2023/01/02 02:16:54;;;;;;;6.45;3.95;;;;;;;6.13;100.00;101118.81;4967312;28;20117;-72
2023/01/02 02:20:00;;;;;;;6.57;3.58;;;;;;;6.10;100.00;101114.41;4970153;28;20141;-74
2023/01/02 02:23:02;;;;;;;11.77;4.72;;;;;;;6.04;100.00;101114.06;4937645;28;20077;-73
2023/01/02 02:26:00;;;;;;;7.55;3.55;;;;;;;5.93;100.00;101103.16;4965939;28;20050;-72
2023/01/02 02:28:58;;;;;;;7.22;3.60;;;;;;;5.96;100.00;101113.66;4951374;28;20059;-73
2023/01/02 02:31:40;;;;;;;8.60;4.00;;;;;;;5.93;100.00;101110.88;4967301;28;20497;-72
2023/01/02 02:34:15;;;;;;;8.77;3.70;;;;;;;5.90;100.00;101104.69;4969179;28;20046;-74
2023/01/02 02:36:52;;;;;;;5.28;2.45;;;;;;;5.87;100.00;101097.72;4967469;28;20281;-72
2023/01/02 02:39:34;;;;;;;6.88;2.42;;;;;;;5.83;100.00;101094.09;4961663;28;20133;-74
2023/01/02 02:42:12;;;;;;;6.85;3.13;;;;;;;5.80;100.00;101078.53;4964191;28;20437;-75
2023/01/02 02:44:52;;;;;;;6.43;3.45;;;;;;;5.78;100.00;101079.25;4962477;28;20050;-76
2023/01/02 02:47:30;;;;;;;7.68;3.10;;;;;;;5.75;100.00;101071.38;4957113;28;20047;-71
2023/01/02 02:50:05;;;;;;;5.55;3.40;;;;;;;5.71;100.00;101074.59;4966811;28;21160;-74
2023/01/02 02:52:39;;;;;;;7.93;4.00;;;;;;;5.66;100.00;101071.78;4960500;28;20051;-74
2023/01/02 02:55:13;;;;;;;9.18;3.33;;;;;;;5.61;100.00;101071.53;4965580;28;20065;-77
2023/01/02 02:57:45;;;;;;;7.68;3.47;;;;;;;5.57;100.00;101061.88;4974261;28;20061;-74
2023/01/02 03:00:17;;;;;;;6.57;3.53;;;;;;;5.53;100.00;101059.06;4966521;28;20051;-75
2023/01/02 03:02:48;;;;;;;6.47;4.30;;;;;;;5.46;100.00;101050.16;4972661;28;20085;-74
2023/01/02 03:05:24;;;;;;;8.82;3.60;;;;;;;5.41;100.00;101052.47;4974023;28;20050;-75
2023/01/02 03:07:59;;;;;;;12.73;5.88;;;;;;;5.35;100.00;101046.09;4963034;28;20471;-71
2023/01/02 03:10:35;;;;;;;10.95;5.20;;;;;;;5.24;100.00;101046.41;4965364;28;21454;-71
2023/01/02 03:13:13;;;;;;;11.02;5.72;;;;;;;5.18;100.00;101048.63;4963836;28;20102;-70
2023/01/02 03:15:47;;;;;;;11.25;5.60;;;;;;;5.12;100.00;101048.28;4967633;28;20110;-70
2023/01/02 03:18:30;;;;;;;11.93;5.85;;;;;;;5.05;100.00;101046.16;4965940;28;20057;-70
2023/01/02 03:21:01;;;;;;;;;;;;;;;5.03;100.00;101055.44;4969591;28;20139;-71
2023/01/02 03:23:31;;;;;;;11.05;6.25;;;;;;;4.99;100.00;101056.06;4977259;28;19936;-71
2023/01/02 03:26:01;;;;;;;8.90;5.40;;;;;;;4.95;100.00;101057.59;4966163;28;20519;-70
2023/01/02 03:28:32;;;;;;;14.48;6.85;;;;;;;4.92;100.00;101053.97;4964341;28;20560;-70
2023/01/02 03:31:03;;;;;;;9.48;5.85;;;;;;;4.90;100.00;101051.31;4963189;28;20690;-70
2023/01/02 03:33:39;;;;;;;9.65;5.22;;;;;;;4.88;100.00;101054.56;4964797;28;20081;-70
2023/01/02 03:36:13;;;;;;;12.32;5.68;;;;;;;4.88;100.00;101057.13;4970646;28;20497;-70
2023/01/02 03:38:45;;;;;;;13.20;5.88;;;;;;;4.87;100.00;101058.81;4968907;28;20082;-70
2023/01/02 03:41:20;;;;;;;10.10;5.93;;;;;;;4.87;100.00;101063.06;4960288;28;20406;-71
2023/01/02 03:43:51;;;;;;;11.23;5.22;;;;;;;4.82;100.00;101058.56;4965695;28;20055;-70
2023/01/02 03:46:27;;;;;;;10.52;5.00;;;;;;;4.78;100.00;101059.16;4970065;28;20042;-71
2023/01/02 03:49:02;;;;;;;10.75;4.72;;;;;;;4.71;100.00;101048.50;4966368;28;20047;-70
2023/01/02 03:51:31;;;;;;;7.70;3.78;;;;;;;4.76;100.00;101058.19;4962832;28;20086;-70
2023/01/02 03:54:01;;;;;;;5.85;3.25;;;;;;;4.76;100.00;101058.19;4970883;28;20122;-70
2023/01/02 03:56:44;;;;;;;6.05;3.30;;;;;;;4.77;100.00;101057.41;4966537;28;20149;-70
2023/01/02 03:59:21;;;;;;;5.13;2.72;;;;;;;4.78;100.00;101060.84;4967296;28;20061;-70
2023/01/02 04:01:55;;;;;;;5.47;2.97;;;;;;;4.77;100.00;101052.28;4968095;28;20050;-70
2023/01/02 04:04:40;;;;;;;6.18;2.53;;;;;;;4.78;100.00;101045.47;4967422;28;20181;-70
2023/01/02 04:07:13;;;;;;;4.28;3.42;;;;;;;4.77;100.00;101044.59;4963757;28;20058;-71
2023/01/02 04:09:43;;;;;;;6.40;2.85;;;;;;;4.77;100.00;101038.59;4962707;28;20046;-71
2023/01/02 04:12:15;;;;;;;5.50;2.88;;;;;;;4.76;100.00;101037.69;4968000;28;20046;-71
2023/01/02 04:14:47;;;;;;;5.05;2.97;;;;;;;4.75;100.00;101041.06;4963643;28;20058;-71
2023/01/02 04:17:19;;;;;;;7.47;3.63;;;;;;;4.74;100.00;101034.19;4967453;28;20459;-71
2023/01/02 04:19:52;;;;;;;6.53;3.13;;;;;;;4.70;100.00;101032.22;4963904;28;20051;-71
2023/01/02 04:22:25;;;;;;;6.03;3.45;;;;;;;4.68;100.00;101030.38;4965444;28;20096;-71
2023/01/02 04:24:55;;;;;;;;;;;;;;;4.56;100.00;101022.88;4964420;28;20055;-71
2023/01/02 04:27:29;;;;;;;7.32;3.42;;;;;;;4.62;100.00;101041.16;4962304;28;19927;-73
2023/01/02 04:29:58;;;;;;;9.02;3.95;;;;;;;4.59;100.00;101036.72;4958821;28;20636;-72
2023/01/02 04:32:32;;;;;;;6.25;3.30;;;;;;;4.56;100.00;101038.25;4964967;28;20047;-72
2023/01/02 04:35:06;;;;;;;11.68;4.28;;;;;;;4.54;100.00;101039.84;4961817;28;20051;-73
2023/01/02 04:37:36;;;;;;;17.45;10.45;;;;;;;4.45;100.00;101021.38;4964082;28;20230;-73
2023/01/02 04:40:10;;;;;;;5.90;2.55;;;;;;;4.48;100.00;101032.66;4958958;28;20077;-73
2023/01/02 04:42:39;;;;;;;5.82;3.08;;;;;;;4.47;100.00;101022.34;4966526;28;20082;-72
2023/01/02 04:45:09;;;;;;;9.13;4.13;;;;;;;4.40;100.00;101019.41;4962024;28;20053;-72
2023/01/02 04:47:37;;;;;;;13.35;7.00;;;;;;;4.37;100.00;101026.91;4959632;28;20366;-72
2023/01/02 04:50:09;;;;;;;9.23;4.07;;;;;;;4.32;100.00;101012.94;4964900;28;20381;-72
2023/01/02 04:52:38;;;;;;;8.02;3.35;;;;;;;4.27;100.00;101009.22;4954411;28;20058;-72
2023/01/02 04:55:08;;;;;;;8.75;4.00;;;;;;;4.19;100.00;101005.31;4965050;28;20057;-73
2023/01/02 04:57:37;;;;;;;6.50;3.63;;;;;;;4.09;100.00;101001.34;4960197;28;20063;-73
2023/01/02 05:00:08;;;;;;;5.85;2.92;;;;;;;4.08;100.00;101011.50;4959985;28;20061;-72
2023/01/02 05:02:37;;;;;;;7.70;3.92;;;;;;;4.06;100.00;101002.84;4960654;28;20109;-72
2023/01/02 05:05:09;;;;;;;7.75;3.60;;;;;;;4.04;100.00;101007.00;4962023;28;20121;-72
2023/01/02 05:07:38;;;;;;;6.75;3.50;;;;;;;4.02;100.00;101000.91;4960078;28;20047;-73
2023/01/02 05:10:08;;;;;;;5.82;3.22;;;;;;;4.02;100.00;101006.00;4960383;28;20047;-72
2023/01/02 05:12:37;;;;;;;6.25;3.67;;;;;;;4.01;100.00;101001.66;4967502;28;20080;-72
2023/01/02 05:15:08;;;;;;;5.22;3.40;;;;;;;3.97;100.00;100996.38;4966474;28;20665;-72
2023/01/02 05:17:37;;;;;;;5.05;3.20;;;;;;;4.01;100.00;101004.22;4962426;28;20063;-73
2023/01/02 05:20:10;;;;;;;5.82;3.13;;;;;;;4.01;100.00;101000.03;4967036;28;20054;-74
2023/01/02 05:25:25;;;;;;;7.80;3.60;;;;;;;4.04;100.00;100994.19;4961516;28;20101;-74
2023/01/02 05:27:54;;;;;;;2.83;1.77;;;;;;;4.02;100.00;100994.09;4961928;28;20484;-74
2023/01/02 05:30:23;;;;;;;4.15;2.53;;;;;;;4.04;100.00;100989.94;4968710;28;20127;-73
2023/01/02 05:32:52;;;;;;;5.88;2.78;;;;;;;4.07;100.00;100991.81;4966152;28;20055;-74
2023/01/02 05:35:23;;;;;;;7.05;2.90;;;;;;;4.07;100.00;100989.25;4968472;28;20046;-73
2023/01/02 05:37:51;;;;;;;4.43;2.22;;;;;;;4.08;100.00;100991.03;4962429;28;20043;-72
2023/01/02 05:40:20;;;;;;;4.22;2.13;;;;;;;4.10;100.00;100995.44;4969396;28;20564;-75
2023/01/02 05:42:48;;;;;;;5.95;2.90;;;;;;;4.10;100.00;100991.97;4967274;28;20057;-77
2023/01/02 05:45:17;;;;;;;5.07;3.40;;;;;;;4.08;100.00;100993.59;4964838;28;20464;-74
2023/01/02 05:47:46;;;;;;;6.88;3.78;;;;;;;4.04;100.00;100991.63;4966031;28;20447;-75
2023/01/02 05:50:14;;;;;;;9.70;3.45;;;;;;;4.01;100.00;100992.34;4965975;28;20496;-75
2023/01/02 05:52:45;;;;;;;8.00;3.20;;;;;;;3.98;100.00;100984.44;4962913;28;20484;-74
2023/01/02 05:55:13;;;;;;;7.53;3.45;;;;;;;3.97;100.00;100978.47;4971692;28;20051;-74
2023/01/02 05:57:42;;;;;;;11.00;4.03;;;;;;;3.95;100.00;100980.03;4973697;28;20077;-74
2023/01/02 06:00:12;;;;;;;7.70;3.67;;;;;;;3.92;100.00;100979.88;4960085;28;20469;-75
2023/01/02 06:02:41;;;;;;;7.65;3.88;;;;;;;3.90;100.00;100971.22;4971570;28;20062;-72
2023/01/02 06:05:10;;;;;;;8.20;3.63;;;;;;;3.88;100.00;100972.78;4969169;28;20051;-74
2023/01/02 06:07:39;;;;;;;8.30;3.80;;;;;;;3.87;100.00;100965.91;4966072;28;20047;-74
2023/01/02 06:10:10;;;;;;;7.93;2.78;;;;;;;3.84;100.00;100970.84;4962787;28;20055;-74
2023/01/02 06:12:39;;;;;;;8.10;3.67;;;;;;;3.81;100.00;100960.41;4965707;28;20049;-74
2023/01/02 06:15:08;;;;;;;8.18;3.80;;;;;;;3.79;100.00;100962.00;4966510;28;20047;-75
2023/01/02 06:17:37;;;;;;;6.28;3.20;;;;;;;3.77;100.00;100953.34;4967962;28;20059;-76
2023/01/02 06:20:07;;;;;;;9.27;4.50;;;;;;;3.74;100.00;100948.06;4962411;28;20045;-74
2023/01/02 06:22:35;;;;;;;10.75;3.95;;;;;;;3.70;100.00;100936.72;4967507;28;20054;-73
2023/01/02 06:25:04;;;;;;;7.70;3.60;;;;;;;3.67;100.00;100941.69;4969393;28;21221;-74
2023/01/02 06:27:35;;;;;;;8.25;4.22;;;;;;;3.62;100.00;100925.19;4962608;28;20393;-73
2023/01/02 06:30:03;;;;;;;5.85;3.10;;;;;;;3.56;100.00;100928.22;4966274;28;20094;-72
2023/01/02 06:32:32;;;;;;;7.22;3.83;;;;;;;3.49;100.00;100920.97;4971446;28;20042;-73
2023/01/02 06:35:01;;;;;;;11.50;5.15;;;;;;;3.46;100.00;100923.38;4968565;28;20143;-74
2023/01/02 06:37:29;;;;;;;8.82;4.82;;;;;;;3.44;100.00;100916.41;4965544;28;20533;-75
2023/01/02 06:39:58;;;;;;;7.78;3.95;;;;;;;3.43;100.00;100914.59;4968921;28;20066;-72
2023/01/02 06:42:26;;;;;;;7.70;4.03;;;;;;;3.41;100.00;100919.63;4967745;28;20140;-72
2023/01/02 06:44:57;;;;;;;6.30;3.65;;;;;;;3.41;100.00;100901.72;4967423;28;20698;-72
2023/01/02 06:47:25;;;;;;;7.30;4.35;;;;;;;3.39;100.00;100904.97;4963876;28;20054;-73
2023/01/02 06:49:54;;;;;;;5.75;3.22;;;;;;;3.35;100.00;100899.69;4967429;28;20046;-74
2023/01/02 06:52:22;;;;;;;5.15;2.75;;;;;;;3.24;100.00;100877.69;4971342;28;20062;-72
2023/01/02 06:54:51;;;;;;;6.32;2.00;;;;;;;3.40;100.00;100892.28;4966219;28;20047;-71
2023/01/02 06:57:19;;;;;;;5.38;2.72;;;;;;;3.47;100.00;100893.53;4964718;28;20195;-72
2023/01/02 06:59:48;;;;;;;4.70;2.20;;;;;;;3.52;100.00;100890.47;4969054;28;20054;-73
2023/01/02 07:02:18;;;;;;;4.18;2.75;;;;;;;3.60;100.00;100892.59;4959052;28;20051;-73
2023/01/02 07:04:46;;;;;;;5.75;2.72;;;;;;;3.63;100.00;100895.34;4966555;28;20051;-74
2023/01/02 07:07:15;;;;;;;5.07;2.88;;;;;;;3.63;100.00;100887.66;4969380;28;20050;-75
2023/01/02 07:09:43;;;;;;;6.57;3.30;;;;;;;3.60;100.00;100890.03;4969332;28;20118;-75
2023/01/02 07:12:12;;;;;;;5.38;2.80;;;;;;;3.58;100.00;100886.53;4969148;28;20612;-73
2023/01/02 07:14:40;;;;;;;5.18;2.88;;;;;;;3.53;100.00;100882.00;4969457;28;20516;-74
2023/01/02 07:17:09;;;;;;;6.75;2.55;;;;;;;3.50;100.00;100881.81;4972358;28;20043;-74
2023/01/02 07:19:39;;;;;;;3.42;2.20;;;;;;;3.45;100.00;100883.22;4968604;28;20047;-76
2023/01/02 07:22:08;;;;;;;3.20;1.95;;;;;;;3.40;100.00;100874.38;4968936;28;20051;-70
2023/01/02 07:24:37;;;;;;;5.40;2.85;;;;;;;3.36;100.00;100874.97;4969646;28;20144;-71
2023/01/02 07:27:06;;;;;;;9.20;3.83;;;;;;;3.30;100.00;100872.09;4964788;28;20047;-70
2023/01/02 07:29:34;;;;;;;8.23;3.65;;;;;;;3.25;100.00;100865.78;4971563;28;20055;-70
2023/01/02 07:32:03;;;;;;;6.05;2.88;;;;;;;3.19;100.00;100857.75;4968325;28;20046;-70
2023/01/02 07:34:31;;;;;;;6.28;2.97;;;;;;;3.15;100.00;100852.44;4966440;28;20532;-70
2023/01/02 07:37:02;;;;;;;5.70;3.47;;;;;;;3.13;100.00;100843.78;4970989;28;20054;-70
2023/01/02 07:39:30;;;;;;;7.30;4.28;;;;;;;3.10;100.00;100843.63;4971923;28;20077;-70
2023/01/02 07:41:59;;;;;;;8.68;4.35;;;;;;;3.08;100.00;100837.53;4967464;28;20057;-70
2023/01/02 07:44:27;;;;;;;7.45;3.45;;;;;;;3.06;100.00;100828.00;4965008;28;20173;-70
2023/01/02 07:46:56;;;;;;;4.95;2.70;;;;;;;3.04;100.00;100819.34;4968110;28;20055;-70
2023/01/02 07:49:24;;;;;;;7.53;3.55;;;;;;;3.01;100.00;100807.25;4963460;28;20054;-70
2023/01/02 07:51:53;;;;;;;6.63;2.72;;;;;;;3.00;100.00;100800.41;4963234;28;20099;-70
2023/01/02 07:54:23;;;;;;;7.05;2.80;;;;;;;3.01;100.00;100801.28;4966796;28;20061;-69
2023/01/02 07:56:52;;;;;;;4.85;2.67;;;;;;;2.98;100.00;100807.09;4961889;28;20688;-70
2023/01/02 07:59:21;;;;;;;4.25;2.92;;;;;;;2.95;100.00;100799.22;4952592;28;20047;-70
2023/01/02 08:01:57;;;;;;;5.80;3.45;;;;;;;2.96;100.00;100798.44;4941331;28;20050;-70
2023/01/02 08:04:25;;;;;;;4.18;2.25;;;;;;;2.96;100.00;100787.34;4948588;28;20054;-70
2023/01/02 08:06:54;;;;;;;11.15;2.97;;;;;;;2.92;100.00;100786.25;4948843;28;20047;-70
2023/01/02 08:09:24;;;;;;;5.35;2.72;;;;;;;2.91;100.00;100789.63;4952748;28;20061;-70
2023/01/02 08:11:53;;;;;;;7.28;2.67;;;;;;;2.87;100.00;100782.56;4947849;28;20062;-70
2023/01/02 08:14:21;;;;;;;9.95;3.53;;;;;;;2.85;100.00;100774.78;4946184;28;20051;-70
2023/01/02 08:16:50;;;;;;;6.80;2.72;;;;;;;2.83;100.00;100770.38;4953779;28;20046;-70
2023/01/02 08:19:18;;;;;;;4.72;2.33;;;;;;;2.78;100.00;100759.88;4952479;28;20047;-70
2023/01/02 08:21:47;;;;;;;2.90;1.67;;;;;;;2.75;100.00;100756.22;4948800;28;20057;-70
2023/01/02 08:24:15;;;;;;;4.47;1.63;;;;;;;2.72;100.00;100747.59;4943778;28;20047;-70
2023/01/02 08:26:45;;;;;;;2.67;1.45;;;;;;;2.67;100.00;100743.88;4944410;28;20138;-70
2023/01/02 08:29:14;;;;;;;4.53;1.73;;;;;;;2.66;100.00;100726.81;4956098;28;20051;-70
2023/01/02 08:31:42;;;;;;;3.17;1.25;;;;;;;2.65;100.00;100719.03;4953779;28;20552;-69
2023/01/02 08:34:13;;;;;;;4.43;1.83;;;;;;;2.64;100.00;100712.19;4950815;28;20600;-70
2023/01/02 08:36:42;;;;;;;4.22;0.98;;;;;;;2.62;100.00;100699.31;4951305;28;20505;-70
2023/01/02 08:39:11;;;;;;;4.22;1.50;;;;;;;2.61;100.00;100692.44;4954510;28;20562;-70
2023/01/02 08:41:41;;;;;;;1.52;1.23;;;;;;;2.60;100.00;100675.34;4949717;28;20069;-70
2023/01/02 08:44:11;;;;;;;4.40;1.63;;;;;;;2.59;100.00;100671.03;4954027;28;20054;-69
2023/01/02 08:46:39;;;;;;;4.03;1.85;;;;;;;2.59;100.00;100673.59;4951386;28;20047;-70
2023/01/02 08:49:08;;;;;;;2.53;1.42;;;;;;;2.58;100.00;100671.81;4948545;28;20050;-70
2023/01/02 08:51:36;;;;;;;2.92;1.60;;;;;;;2.54;100.00;100662.19;4952846;28;20051;-70
2023/01/02 08:54:05;;;;;;;2.90;1.88;;;;;;;2.55;100.00;100670.75;4955164;28;21246;-70
2023/01/02 08:56:35;;;;;;;3.95;1.88;;;;;;;2.53;100.00;100660.44;4955135;28;20059;-71
2023/01/02 08:59:06;;;;;;;4.25;1.83;;;;;;;2.52;100.00;100656.13;4967410;28;20169;-70
2023/01/02 09:01:36;;;;;;;2.75;1.75;;;;;;;2.53;100.00;100651.91;4965776;28;20057;-69
2023/01/02 09:04:06;;;;;;;3.67;2.13;;;;;;;2.52;100.00;100656.13;4968454;28;20043;-70
2023/01/02 09:06:36;;;;;;;5.25;2.30;;;;;;;2.49;100.00;100641.47;4965370;28;20738;-70
2023/01/02 09:09:05;;;;;;;6.80;1.92;;;;;;;2.48;100.00;100638.84;4967411;28;20059;-70
2023/01/02 09:11:36;;;;;;;4.45;2.90;;;;;;;2.44;100.00;100632.66;4968694;28;20058;-70
2023/01/02 09:14:06;;;;;;;5.80;2.80;;;;;;;2.40;100.00;100624.72;4967144;28;20051;-70
2023/01/02 09:16:36;;;;;;;5.40;2.15;;;;;;;2.38;100.00;100613.53;4965971;28;20063;-70
2023/01/02 09:19:05;;;;;;;4.15;2.13;;;;;;;2.36;100.00;100598.16;4965875;28;20141;-70
2023/01/02 09:21:33;;;;;;;6.03;1.80;;;;;;;2.35;100.00;100598.03;4966993;28;20059;-70
2023/01/02 09:24:02;;;;;;;4.15;1.92;;;;;;;2.32;100.00;100595.31;4961453;28;20039;-69
2023/01/02 09:26:30;;;;;;;2.70;1.35;;;;;;;2.33;100.00;100587.72;4969646;28;20134;-70
2023/01/02 09:28:59;;;;;;;2.10;1.08;;;;;;;2.30;100.00;100583.31;4967882;28;20050;-70
2023/01/02 09:31:28;;;;;;;3.45;1.30;;;;;;;2.28;100.00;100576.38;4972227;28;20054;-70
2023/01/02 09:33:58;;;;;;;3.30;1.17;;;;;;;2.27;100.00;100567.84;4965227;28;20070;-69
2023/01/02 09:36:26;;;;;;;2.17;1.23;;;;;;;2.26;100.00;100568.59;4971944;28;20711;-70
2023/01/02 09:38:55;;;;;;;2.63;1.55;;;;;;;2.23;100.00;100555.69;4971186;28;20072;-71
2023/01/02 09:41:32;;;;;;;4.85;1.45;;;;;;;2.20;100.00;100552.94;4974050;28;20547;-70
2023/01/02 09:44:03;;;;;;;4.35;1.70;;;;;;;2.20;100.00;100554.59;4973031;28;20496;-69
2023/01/02 09:46:41;;;;;;;2.67;1.60;;;;;;;2.18;100.00;100544.31;4970386;28;20046;-70
2023/01/02 09:49:15;;;;;;;1.67;1.38;;;;;;;2.24;100.00;100551.44;4969801;28;20134;-69
2023/01/02 09:51:44;;;;;;;3.25;1.70;;;;;;;2.23;100.00;100560.78;4967890;28;20493;-69
2023/01/02 09:54:20;;;;;;;2.53;1.40;;;;;;;2.19;100.00;100543.50;4971046;28;20543;-70
2023/01/02 09:56:55;;;;;;;2.35;0.95;;;;;;;2.14;100.00;100544.91;4968383;28;20047;-69
2023/01/02 09:59:29;;;;;;;3.00;2.08;;;;;;;2.10;100.00;100528.53;4971412;28;20046;-69
2023/01/02 10:02:13;;;;;;;2.78;1.13;;;;;;;2.07;100.00;100522.38;4967360;28;20137;-69
2023/01/02 10:05:02;;;;;;;2.45;1.10;;;;;;;2.02;100.00;100521.22;4969041;28;20047;-69
2023/01/02 10:07:39;;;;;;;8.95;1.27;;;;;;;2.01;100.00;100522.00;4970709;28;20058;-69
2023/01/02 10:10:18;;;;;;;1.77;0.93;;;;;;;2.00;100.00;100525.34;4969233;28;20046;-69
2023/01/02 10:13:01;;;;;;;2.35;1.15;;;;;;;2.00;100.00;100530.47;4970471;28;20046;-69
2023/01/02 10:15:31;;;;;;;0.95;0.52;;;;;;;1.98;100.00;100543.13;4967698;28;20078;-70
2023/01/02 10:18:07;;;;;;;1.38;0.82;;;;;;;1.98;100.00;100538.00;4973766;28;20493;-70
2023/01/02 10:20:43;;;;;;;1.45;0.80;;;;;;;1.99;100.00;100539.75;4971270;28;20102;-70
2023/01/02 10:23:23;;;;;;;1.33;0.88;;;;;;;2.00;100.00;100535.56;4971270;28;20047;-70
2023/01/02 10:25:56;;;;;;;0.98;0.80;;;;;;;2.00;100.00;100538.13;4971268;28;20548;-70
2023/01/02 10:28:35;;;;;;;1.35;0.70;;;;;;;1.99;100.00;100538.88;4960634;28;20913;-69
2023/01/02 10:31:08;;;;;;;1.00;0.90;;;;;;;1.99;100.00;100529.56;4968792;28;20078;-70
2023/01/02 10:33:45;;;;;;;0.85;0.70;;;;;;;2.01;100.00;100533.06;4968871;28;20042;-70
2023/01/02 10:36:25;;;;;;;3.28;1.38;;;;;;;2.02;100.00;100522.09;4972377;28;20729;-70
2023/01/02 10:38:54;;;;;;;1.60;1.08;;;;;;;2.02;100.00;100514.44;4969016;28;20051;-70
2023/01/02 10:41:23;;;;;;;1.75;1.08;;;;;;;2.03;100.00;100505.13;4968175;28;20055;-70
2023/01/02 10:43:55;;;;;;;1.48;0.82;;;;;;;2.04;100.00;100489.91;4972126;28;20046;-70
2023/01/02 10:46:23;;;;;;;1.08;0.75;;;;;;;2.07;100.00;100476.44;4969247;28;20818;-70
2023/01/02 10:48:52;;;;;;;4.03;1.00;;;;;;;2.06;100.00;100465.34;4964788;28;20504;-70
2023/01/02 10:51:22;;;;;;;2.78;1.20;;;;;;;2.06;100.00;100456.78;4967702;28;20389;-70
2023/01/02 10:54:02;;;;;;;1.30;1.00;;;;;;;2.04;100.00;100436.31;4969331;28;20421;-70
2023/01/02 10:56:33;;;;;;;1.50;0.90;;;;;;;2.05;100.00;100432.06;4967018;28;20051;-70
2023/01/02 10:59:02;;;;;;;3.83;1.55;;;;;;;2.04;100.00;100432.88;4969485;28;20062;-70
2023/01/02 11:01:31;;;;;;;1.65;1.20;;;;;;;2.04;100.00;100438.00;4966453;28;20059;-70
2023/01/02 11:04:14;;;;;;;1.27;0.90;;;;;;;2.03;100.00;100426.00;4966574;28;20595;-70
2023/01/02 11:06:54;;;;;;;3.53;1.10;;;;;;;2.02;100.00;100424.25;4966980;28;20062;-71
2023/01/02 11:09:25;;;;;;;1.27;0.82;;;;;;;2.02;100.00;100411.50;4961744;28;20050;-70
2023/01/02 11:11:55;;;;;;;1.45;0.68;;;;;;;2.01;100.00;100408.03;4972059;28;20607;-71
2023/01/02 11:14:28;;;;;;;1.10;0.82;;;;;;;1.91;100.00;100394.69;4967510;28;20687;-70
2023/01/02 11:17:04;;;;;;;2.42;0.95;;;;;;;2.01;100.00;100407.16;4966389;28;20054;-70
2023/01/02 11:19:41;;;;;;;1.50;0.85;;;;;;;2.00;100.00;100415.63;4967193;28;20051;-70
2023/01/02 11:22:13;;;;;;;1.73;0.80;;;;;;;1.96;100.00;100413.69;4969372;28;20043;-70
2023/01/02 11:25:00;;;;;;;1.50;0.90;;;;;;;1.96;100.00;100408.56;4966304;28;20047;-70
2023/01/02 11:27:33;;;;;;;2.03;0.90;;;;;;;1.94;100.00;100403.38;4966255;28;20062;-70
2023/01/02 11:30:02;;;;;;;1.92;1.20;;;;;;;1.92;100.00;100417.72;4964809;28;20457;-70
2023/01/02 11:32:38;;;;;;;2.05;1.05;;;;;;;1.94;100.00;100415.25;4967434;28;20063;-70
2023/01/02 11:35:32;;;;;;;1.75;0.80;;;;;;;1.95;100.00;100414.44;4972258;28;20078;-70
2023/01/02 11:38:04;;;;;;;3.08;1.30;;;;;;;1.97;100.00;100398.47;4968448;28;20097;-70
2023/01/02 11:40:33;;;;;;;2.15;1.17;;;;;;;1.97;100.00;100402.66;4969740;28;21206;-70
2023/01/02 11:45:53;;;;;;;1.70;1.13;;;;;;;1.99;100.00;100432.59;4970395;28;20194;-70
2023/01/02 11:48:25;;;;;;;2.40;1.25;;;;;;;2.02;100.00;100434.47;4969681;28;20559;-70
2023/01/02 11:50:54;;;;;;;1.63;0.98;;;;;;;2.02;100.00;100453.19;4972594;28;20574;-70